createdAt,value
2022-11-09T00:02:49.463Z,5.35
2022-11-09T00:07:11.421Z,6.90
2022-11-09T00:11:37.506Z,8.18
2022-11-09T00:16:00.485Z,4.35
2022-11-09T00:20:22.394Z,6.78
2022-11-09T00:24:44.673Z,7.45
2022-11-09T00:29:06.851Z,9.82
2022-11-09T00:33:29.045Z,6.78
2022-11-09T00:37:51.155Z,10.35
2022-11-09T00:42:13.227Z,7.47
2022-11-09T00:46:35.173Z,6.35
2022-11-09T00:50:58.145Z,10.00
2022-11-09T00:55:21.235Z,7.60
2022-11-09T00:59:42.923Z,8.73
2022-11-09T01:04:04.884Z,8.05
2022-11-09T01:08:28.523Z,8.40
2022-11-09T01:12:51.119Z,6.70
2022-11-09T01:17:12.821Z,7.65
2022-11-09T01:21:34.985Z,8.35
2022-11-09T01:26:08.136Z,6.18
2022-11-09T01:30:31.093Z,6.68
2022-11-09T01:34:53.050Z,8.25
2022-11-09T01:39:15.251Z,6.78
2022-11-09T01:43:39.550Z,9.55
2022-11-09T01:48:10.816Z,12.57
2022-11-09T01:52:35.725Z,6.43
2022-11-09T01:57:06.505Z,6.28
2022-11-09T02:01:28.446Z,5.72
2022-11-09T02:05:51.904Z,6.53
2022-11-09T02:10:22.293Z,3.58
2022-11-09T02:14:47.820Z,5.50
2022-11-09T02:19:11.038Z,4.13
2022-11-09T02:23:33.499Z,7.97
2022-11-09T02:27:55.355Z,15.05
2022-11-09T02:32:24.135Z,29.80
2022-11-09T02:36:48.529Z,15.63
2022-11-09T02:41:14.613Z,5.85
2022-11-09T02:45:37.258Z,3.85
2022-11-09T02:50:00.207Z,6.65
2022-11-09T02:54:22.063Z,5.85
2022-11-09T02:58:44.641Z,5.47
2022-11-09T03:03:06.996Z,6.90
2022-11-09T03:07:29.210Z,3.88
2022-11-09T03:11:51.987Z,5.28
2022-11-09T03:16:15.090Z,3.97
2022-11-09T03:20:37.176Z,6.97
2022-11-09T03:24:59.497Z,5.13
2022-11-09T03:29:21.488Z,8.77
2022-11-09T03:33:44.072Z,10.38
2022-11-09T03:38:06.759Z,10.15
2022-11-09T03:42:28.993Z,5.43
2022-11-09T03:46:51.324Z,9.32
2022-11-09T03:51:13.332Z,7.05
2022-11-09T03:55:35.411Z,7.55
2022-11-09T03:59:58.037Z,8.55
2022-11-09T04:04:20.150Z,5.53
2022-11-09T04:08:45.751Z,8.45
2022-11-09T04:13:13.892Z,6.53
2022-11-09T04:17:36.015Z,4.97
2022-11-09T04:21:57.950Z,4.60
2022-11-09T04:26:19.933Z,8.13
2022-11-09T04:30:43.188Z,6.03
2022-11-09T04:35:05.387Z,10.77
2022-11-09T04:39:27.140Z,7.63
2022-11-09T04:43:49.116Z,8.65
2022-11-09T04:48:12.187Z,10.43
2022-11-09T04:52:33.781Z,11.25
2022-11-09T04:56:55.863Z,8.25
2022-11-09T05:01:17.794Z,9.07
2022-11-09T05:05:44.016Z,5.55
2022-11-09T05:10:09.142Z,10.32
2022-11-09T05:14:30.992Z,8.35
2022-11-09T05:18:53.154Z,8.20
2022-11-09T05:23:33.880Z,12.07
2022-11-09T05:27:55.720Z,8.35
2022-11-09T05:32:17.555Z,9.95
2022-11-09T05:36:39.336Z,11.60
2022-11-09T05:41:01.422Z,9.43
2022-11-09T05:45:41.984Z,11.27
2022-11-09T05:50:04.713Z,6.32
2022-11-09T05:54:26.655Z,7.05
2022-11-09T05:58:48.913Z,6.88
2022-11-09T06:03:12.153Z,10.07
2022-11-09T06:07:34.170Z,8.20
2022-11-09T06:11:56.171Z,9.43
2022-11-09T06:16:18.323Z,5.78
2022-11-09T06:20:40.300Z,8.32
2022-11-09T06:25:02.835Z,7.72
2022-11-09T06:29:24.600Z,11.60
2022-11-09T06:33:47.531Z,7.22
2022-11-09T06:38:11.640Z,7.20
2022-11-09T06:42:33.655Z,8.13
2022-11-09T06:46:55.832Z,9.63
2022-11-09T06:51:18.493Z,9.25
2022-11-09T06:55:43.386Z,10.02
2022-11-09T07:00:10.492Z,7.18
2022-11-09T07:04:32.193Z,6.57
2022-11-09T07:08:57.733Z,5.75
2022-11-09T07:13:20.331Z,10.52
2022-11-09T07:17:42.935Z,11.32
2022-11-09T07:22:04.762Z,7.78
2022-11-09T07:26:27.496Z,7.93
2022-11-09T07:30:52.925Z,6.57
2022-11-09T07:35:14.975Z,6.65
2022-11-09T07:39:37.294Z,5.43
2022-11-09T07:43:59.244Z,5.53
2022-11-09T07:48:21.619Z,13.20
2022-11-09T07:52:43.335Z,6.78
2022-11-09T07:57:06.167Z,8.18
2022-11-09T08:01:28.267Z,9.07
2022-11-09T08:05:50.620Z,8.98
2022-11-09T08:10:12.542Z,7.88
2022-11-09T08:14:34.268Z,8.55
2022-11-09T08:18:56.275Z,8.88
2022-11-09T08:23:21.103Z,8.32
2022-11-09T08:27:43.820Z,11.48
2022-11-09T08:32:05.502Z,4.55
2022-11-09T08:36:29.594Z,10.00
2022-11-09T08:40:57.677Z,6.18
2022-11-09T08:45:20.281Z,9.52
2022-11-09T08:49:44.120Z,11.65
2022-11-09T08:54:07.235Z,8.82
2022-11-09T08:58:29.253Z,6.13
2022-11-09T09:02:51.237Z,7.70
2022-11-09T09:07:14.028Z,6.25
2022-11-09T09:11:36.024Z,7.85
2022-11-09T09:15:58.346Z,8.18
2022-11-09T09:20:20.838Z,8.10
2022-11-09T09:24:42.957Z,6.20
2022-11-09T09:29:05.038Z,5.53
2022-11-09T09:33:28.211Z,4.47
2022-11-09T09:37:50.170Z,6.20
2022-11-09T09:42:42.067Z,6.32
2022-11-09T09:47:15.572Z,11.40
2022-11-09T09:52:14.480Z,6.15
2022-11-09T09:56:40.933Z,6.93
2022-11-09T10:01:17.424Z,4.85
2022-11-09T10:06:11.666Z,5.50
2022-11-09T10:11:18.483Z,4.00
2022-11-09T10:16:13.682Z,5.85
2022-11-09T10:20:54.075Z,6.03
2022-11-09T10:25:43.567Z,5.63
2022-11-09T10:30:19.449Z,6.38
2022-11-09T10:34:53.713Z,3.35
2022-11-09T10:39:16.308Z,5.70
2022-11-09T10:43:56.842Z,1.77
2022-11-09T10:48:40.724Z,3.90
2022-11-09T10:53:27.790Z,2.38
2022-11-09T10:58:25.106Z,3.85
2022-11-09T11:03:18.259Z,0.98
2022-11-09T11:08:11.971Z,3.20
2022-11-09T11:13:01.629Z,2.33
2022-11-09T11:17:42.781Z,2.08
2022-11-09T11:22:27.429Z,3.63
2022-11-09T11:27:25.485Z,2.50
2022-11-09T11:32:17.850Z,2.53
2022-11-09T11:37:27.234Z,1.92
2022-11-09T11:42:25.490Z,2.80
2022-11-09T11:47:25.883Z,1.90
2022-11-09T11:52:30.320Z,1.90
2022-11-09T11:57:43.891Z,1.75
2022-11-09T12:03:12.014Z,2.38
2022-11-09T12:08:32.055Z,3.03
2022-11-09T12:13:47.001Z,2.60
2022-11-09T12:19:11.979Z,1.27
2022-11-09T12:24:18.541Z,3.80
2022-11-09T12:29:23.883Z,2.38
2022-11-09T12:35:00.106Z,1.42
2022-11-09T12:39:50.599Z,2.97
2022-11-09T12:44:40.121Z,1.27
2022-11-09T12:49:42.210Z,5.18
2022-11-09T12:54:23.487Z,4.90
2022-11-09T12:59:22.746Z,1.65
2022-11-09T13:04:05.104Z,1.20
2022-11-09T13:09:21.464Z,2.03
2022-11-09T13:14:29.151Z,2.05
2022-11-09T13:19:10.300Z,1.65
2022-11-09T13:24:02.733Z,3.42
2022-11-09T13:28:45.163Z,2.50
2022-11-09T13:33:28.691Z,2.55
2022-11-09T13:38:32.261Z,4.30
2022-11-09T13:43:12.702Z,1.83
2022-11-09T13:47:53.741Z,4.97
2022-11-09T13:52:51.621Z,3.25
2022-11-09T13:57:32.668Z,3.55
2022-11-09T14:02:26.267Z,3.78
2022-11-09T14:07:29.706Z,4.10
2022-11-09T14:12:46.609Z,2.05
2022-11-09T14:18:03.615Z,3.20
2022-11-09T14:22:44.246Z,3.33
2022-11-09T14:27:24.916Z,3.20
2022-11-09T14:32:30.498Z,3.95
2022-11-09T14:37:14.573Z,5.00
2022-11-09T14:41:55.955Z,4.97
2022-11-09T14:46:36.571Z,4.07
2022-11-09T14:51:17.785Z,6.57
2022-11-09T14:56:03.730Z,5.22
2022-11-09T15:00:46.078Z,3.50
2022-11-09T15:05:40.817Z,7.10
2022-11-09T15:10:23.691Z,3.63
2022-11-09T15:15:07.601Z,8.18
2022-11-09T15:19:58.964Z,5.50
2022-11-09T15:24:48.577Z,6.45
2022-11-09T15:29:42.989Z,5.55
2022-11-09T15:34:27.482Z,6.97
2022-11-09T15:39:18.176Z,5.90
2022-11-09T15:43:59.347Z,8.20
2022-11-09T15:48:43.362Z,7.40
2022-11-09T15:53:27.604Z,8.82
2022-11-09T15:58:14.523Z,8.80
2022-11-09T16:02:55.206Z,5.65
2022-11-09T16:07:35.732Z,5.88
2022-11-09T16:12:16.315Z,4.75
2022-11-09T16:16:56.550Z,6.57
2022-11-09T16:21:37.114Z,5.43
2022-11-09T16:26:19.940Z,3.45
2022-11-09T16:31:00.332Z,3.08
2022-11-09T16:35:40.519Z,5.10
2022-11-09T16:40:21.611Z,7.03
2022-11-09T16:45:12.109Z,6.80
2022-11-09T16:49:52.567Z,4.68
2022-11-09T16:54:33.570Z,4.50
2022-11-09T16:59:14.682Z,5.00
2022-11-09T17:03:57.098Z,5.50
2022-11-09T17:08:41.936Z,7.15
2022-11-09T17:13:22.592Z,6.88
2022-11-09T17:18:04.817Z,7.80
2022-11-09T17:22:46.566Z,8.65
2022-11-09T17:27:27.266Z,6.20
2022-11-09T17:32:10.081Z,7.30
2022-11-09T17:37:04.389Z,5.97
2022-11-09T17:41:46.143Z,6.88
2022-11-09T17:46:26.567Z,6.70
2022-11-09T17:51:08.466Z,7.22
2022-11-09T17:55:50.246Z,9.75
2022-11-09T18:00:31.304Z,9.48
2022-11-09T18:05:12.114Z,8.43
2022-11-09T18:09:52.683Z,8.90
2022-11-09T18:14:33.796Z,10.38
2022-11-09T18:19:14.739Z,7.82
2022-11-09T18:23:56.365Z,5.78
2022-11-09T18:28:37.467Z,7.20
2022-11-09T18:33:18.857Z,8.15
2022-11-09T18:37:59.759Z,6.13
2022-11-09T18:42:40.824Z,9.88
2022-11-09T18:47:23.815Z,6.57
2022-11-09T18:52:04.964Z,6.63
2022-11-09T18:56:46.404Z,8.07
2022-11-09T19:01:27.684Z,6.30
2022-11-09T19:06:14.155Z,8.63
2022-11-09T19:10:54.887Z,7.25
2022-11-09T19:15:38.714Z,8.70
2022-11-09T19:20:20.874Z,9.60
2022-11-09T19:25:01.939Z,8.15
2022-11-09T19:29:42.451Z,8.48
2022-11-09T19:34:23.427Z,5.93
2022-11-09T19:39:05.001Z,7.65
2022-11-09T19:43:50.453Z,7.95
2022-11-09T19:48:35.140Z,8.43
2022-11-09T19:53:16.204Z,9.43
2022-11-09T19:57:56.605Z,8.07
2022-11-09T20:02:37.357Z,8.77
2022-11-09T20:07:18.962Z,8.60
2022-11-09T20:12:18.455Z,6.80
2022-11-09T20:17:03.410Z,9.23
2022-11-09T20:21:45.177Z,9.20
2022-11-09T20:26:25.489Z,7.32
2022-11-09T20:31:15.006Z,6.35
2022-11-09T20:35:56.897Z,10.13
2022-11-09T20:40:37.864Z,13.15
2022-11-09T20:45:18.598Z,9.25
2022-11-09T20:49:59.375Z,9.40
2022-11-09T20:54:40.365Z,8.57
2022-11-09T20:59:21.527Z,8.77
2022-11-09T21:04:02.446Z,7.07
2022-11-09T21:08:50.104Z,7.88
2022-11-09T21:13:31.755Z,8.82
2022-11-09T21:18:13.140Z,8.27
2022-11-09T21:23:12.028Z,7.15
2022-11-09T21:28:11.941Z,8.13
2022-11-09T21:32:52.900Z,7.45
2022-11-09T21:37:33.553Z,6.45
2022-11-09T21:42:14.473Z,7.35
2022-11-09T21:46:55.565Z,5.13
2022-11-09T21:51:38.344Z,8.10
2022-11-09T21:56:19.109Z,6.95
2022-11-09T22:01:08.116Z,5.30
2022-11-09T22:05:49.588Z,8.75
2022-11-09T22:10:30.012Z,6.90
2022-11-09T22:15:30.186Z,5.18
2022-11-09T22:20:29.686Z,11.35
2022-11-09T22:25:10.215Z,9.38
2022-11-09T22:29:50.900Z,6.60
2022-11-09T22:34:31.379Z,7.63
2022-11-09T22:39:11.613Z,11.48
2022-11-09T22:43:53.043Z,7.97
2022-11-09T22:48:35.603Z,7.00
2022-11-09T22:53:15.718Z,7.90
2022-11-09T22:57:57.267Z,6.55
2022-11-09T23:02:38.027Z,6.85
2022-11-09T23:07:18.708Z,6.60
2022-11-09T23:11:59.403Z,5.60
2022-11-09T23:16:39.925Z,9.48
2022-11-09T23:21:40.797Z,11.20
2022-11-09T23:26:22.559Z,7.57
2022-11-09T23:31:10.708Z,8.57
2022-11-09T23:35:51.392Z,11.07
2022-11-09T23:40:35.556Z,10.00
2022-11-09T23:45:16.373Z,10.43
2022-11-09T23:49:57.032Z,9.73
2022-11-09T23:54:37.801Z,8.13
2022-11-09T23:59:18.441Z,7.53
